Time;durP1;ratioP1;P1;durP2;ratioP2;P2;SDS_P1;SDS_P2;PMS_P1;PMS_P2;Temp;Humidity;BMP_temperature;BMP_pressure;BME280_temperature;BME280_humidity;BME280_pressure;Samples;Min_cycle;Max_cycle;Signal;HPM_P1;HPM_P2
2022/09/15 00:00:11;;;;;;;13.15;2.00;;;;;;;;;;4935746;29;20042;-74
2022/09/15 00:02:37;;;;;;;5.88;2.08;;;;;;;;;;4918153;28;20039;-76
2022/09/15 00:05:04;;;;;;;10.15;1.90;;;;;;;;;;4934699;28;20038;-76
2022/09/15 00:07:30;;;;;;;8.95;1.95;;;;;;;;;;4934886;28;20028;-76
2022/09/15 00:09:56;;;;;;;8.02;1.70;;;;;;;;;;4935184;29;20044;-76
2022/09/15 00:12:22;;;;;;;8.25;2.03;;;;;;;;;;4935050;29;20023;-77
2022/09/15 00:14:48;;;;;;;13.15;2.40;;;;;;;;;;4934645;29;20077;-77
2022/09/15 00:17:14;;;;;;;9.45;2.10;;;;;;;;;;4935265;29;20059;-77
2022/09/15 00:19:40;;;;;;;9.15;2.10;;;;;;;;;;4940751;29;20051;-74
2022/09/15 00:22:06;;;;;;;10.93;2.08;;;;;;;;;;4939592;29;20027;-75
2022/09/15 00:24:32;;;;;;;12.38;2.35;;;;;;;;;;4939684;28;20469;-75
2022/09/15 00:26:58;;;;;;;8.25;1.92;;;;;;;;;;4943278;29;20027;-74
2022/09/15 00:29:24;;;;;;;14.10;2.30;;;;;;;;;;4943771;29;20051;-75
2022/09/15 00:31:50;;;;;;;15.68;2.95;;;;;;;;;;4944946;29;20032;-76
2022/09/15 00:34:16;;;;;;;12.50;2.50;;;;;;;;;;4953377;29;20020;-77
2022/09/15 00:36:41;;;;;;;10.07;1.95;;;;;;;;;;4957556;28;20059;-78
2022/09/15 00:39:07;;;;;;;13.00;2.47;;;;;;;;;;4940267;29;20032;-78
2022/09/15 00:41:33;;;;;;;9.32;2.50;;;;;;;;;;4934779;29;20035;-76
2022/09/15 00:44:01;;;;;;;9.27;2.20;;;;;;;;;;4934765;29;20113;-76
2022/09/15 00:46:29;;;;;;;9.18;2.10;;;;;;;;;;4934650;29;20487;-76
2022/09/15 00:49:06;;;;;;;15.45;3.00;;;;;;;;;;4934340;29;20073;-75
2022/09/15 00:51:36;;;;;;;10.68;2.53;;;;;;;;;;4934086;29;20036;-76
2022/09/15 00:54:04;;;;;;;8.68;2.80;;;;;;;;;;4955580;23;20048;-71
2022/09/15 00:56:31;;;;;;;12.15;2.75;;;;;;;;;;4932594;29;20472;-72
2022/09/15 00:59:00;;;;;;;10.02;2.50;;;;;;;;;;4933089;29;20047;-72
2022/09/15 01:01:27;;;;;;;13.82;2.45;;;;;;;;;;4932684;29;20495;-71
2022/09/15 01:03:53;;;;;;;8.13;2.50;;;;;;;;;;4932502;29;20046;-72
2022/09/15 01:06:45;;;;;;;7.78;2.40;;;;;;;;;;4932470;28;20388;-71
2022/09/15 01:09:11;;;;;;;9.07;2.63;;;;;;;;;;4935244;28;20449;-71
2022/09/15 01:11:38;;;;;;;13.20;3.38;;;;;;;;;;4932675;28;20103;-72
2022/09/15 01:14:04;;;;;;;7.65;2.75;;;;;;;;;;4932596;28;20032;-69
2022/09/15 01:16:36;;;;;;;12.90;2.95;;;;;;;;;;4932385;28;20038;-70
2022/09/15 01:19:36;;;;;;;8.68;2.67;;;;;;;;;;4932702;28;20036;-72
2022/09/15 01:22:14;;;;;;;11.25;2.90;;;;;;;;;;4932556;29;20423;-69
2022/09/15 01:25:02;;;;;;;11.95;3.08;;;;;;;;;;4932519;28;20032;-71
2022/09/15 01:27:47;;;;;;;8.13;2.25;;;;;;;;;;4931606;28;20134;-73
2022/09/15 01:30:13;;;;;;;8.75;2.78;;;;;;;;;;4932595;28;20023;-72
2022/09/15 01:33:04;;;;;;;12.57;2.38;;;;;;;;;;4932241;28;20024;-72
2022/09/15 01:35:49;;;;;;;16.67;2.72;;;;;;;;;;4932332;28;20028;-70
2022/09/15 01:38:22;;;;;;;11.30;2.58;;;;;;;;;;4932428;28;20436;-70
2022/09/15 01:40:58;;;;;;;15.57;3.30;;;;;;;;;;4932355;28;20024;-70
2022/09/15 01:43:25;;;;;;;5.35;2.38;;;;;;;;;;4932301;28;20395;-70
2022/09/15 01:45:52;;;;;;;7.78;2.17;;;;;;;;;;4932863;28;20031;-71
2022/09/15 01:48:20;;;;;;;9.30;2.90;;;;;;;;;;4932503;28;20031;-70
2022/09/15 01:50:52;;;;;;;8.93;2.35;;;;;;;;;;4931881;28;20038;-71
2022/09/15 01:53:20;;;;;;;11.95;2.30;;;;;;;;;;4897124;28;1043453;-70
2022/09/15 01:55:52;;;;;;;15.27;3.00;;;;;;;;;;4933002;28;20028;-70
2022/09/15 01:58:18;;;;;;;14.73;2.78;;;;;;;;;;4933978;29;20095;-70
2022/09/15 02:00:47;;;;;;;7.38;2.17;;;;;;;;;;4933312;28;20032;-71
2022/09/15 02:03:33;;;;;;;10.88;2.35;;;;;;;;;;4932802;28;20035;-70
2022/09/15 02:06:02;;;;;;;8.88;2.28;;;;;;;;;;4933485;28;20024;-72
2022/09/15 02:08:39;;;;;;;10.23;2.58;;;;;;;;;;4933974;28;20047;-72
2022/09/15 02:11:14;;;;;;;13.57;2.63;;;;;;;;;;4932851;28;20035;-72
2022/09/15 02:13:40;;;;;;;13.35;2.75;;;;;;;;;;4933454;29;20028;-71
2022/09/15 02:16:18;;;;;;;9.65;2.35;;;;;;;;;;4933045;29;20059;-70
2022/09/15 02:19:02;;;;;;;8.95;2.85;;;;;;;;;;4932624;29;20036;-71
2022/09/15 02:21:36;;;;;;;10.98;2.80;;;;;;;;;;4932657;28;20036;-70
2022/09/15 02:24:05;;;;;;;9.90;2.42;;;;;;;;;;4932635;29;20020;-71
2022/09/15 02:26:33;;;;;;;11.18;2.38;;;;;;;;;;4932474;28;20512;-72
2022/09/15 02:29:02;;;;;;;12.00;2.33;;;;;;;;;;4932453;29;20031;-71
2022/09/15 02:31:28;;;;;;;8.75;2.60;;;;;;;;;;4932628;28;20389;-70
2022/09/15 02:33:58;;;;;;;8.48;2.45;;;;;;;;;;4932562;28;20028;-72
2022/09/15 02:36:25;;;;;;;11.52;2.50;;;;;;;;;;4931145;28;20493;-71
2022/09/15 02:38:53;;;;;;;12.00;2.42;;;;;;;;;;4932765;28;20059;-72
2022/09/15 02:41:19;;;;;;;13.18;2.65;;;;;;;;;;4933328;28;20028;-72
2022/09/15 02:43:46;;;;;;;11.30;2.80;;;;;;;;;;4933122;28;20094;-71
2022/09/15 02:46:12;;;;;;;9.85;2.75;;;;;;;;;;4932695;28;20039;-71
2022/09/15 02:48:38;;;;;;;12.77;2.90;;;;;;;;;;4932612;28;20101;-71
2022/09/15 02:51:04;;;;;;;10.00;2.70;;;;;;;;;;4932420;28;20519;-71
2022/09/15 02:53:30;;;;;;;9.63;2.60;;;;;;;;;;4932256;28;20035;-70
2022/09/15 02:55:56;;;;;;;13.77;2.88;;;;;;;;;;4932276;28;20028;-70
2022/09/15 02:58:22;;;;;;;9.35;2.60;;;;;;;;;;4933106;28;20027;-71
2022/09/15 03:00:49;;;;;;;12.63;2.60;;;;;;;;;;4932635;28;20031;-70
2022/09/15 03:03:15;;;;;;;13.40;3.58;;;;;;;;;;4934652;29;20047;-71
2022/09/15 03:05:41;;;;;;;8.07;2.67;;;;;;;;;;4933054;28;20031;-72
2022/09/15 03:08:07;;;;;;;10.05;2.60;;;;;;;;;;4932423;28;20031;-72
2022/09/15 03:10:33;;;;;;;13.75;2.65;;;;;;;;;;4932416;28;20028;-71
2022/09/15 03:12:59;;;;;;;9.57;2.53;;;;;;;;;;4933032;28;20031;-71
2022/09/15 03:15:25;;;;;;;13.32;2.88;;;;;;;;;;4933102;28;20028;-71
2022/09/15 03:17:52;;;;;;;14.75;2.45;;;;;;;;;;4933529;28;20133;-73
2022/09/15 03:20:20;;;;;;;8.70;2.38;;;;;;;;;;4933150;28;20385;-71
2022/09/15 03:22:46;;;;;;;14.38;2.42;;;;;;;;;;4932808;28;20028;-71
2022/09/15 03:25:12;;;;;;;16.50;2.83;;;;;;;;;;4933077;29;20028;-76
2022/09/15 03:27:38;;;;;;;10.18;2.10;;;;;;;;;;4934853;28;20023;-73
2022/09/15 03:30:05;;;;;;;9.45;2.50;;;;;;;;;;4934028;28;20058;-73
2022/09/15 03:32:32;;;;;;;13.90;2.45;;;;;;;;;;4938150;28;20358;-72
2022/09/15 03:34:58;;;;;;;11.95;2.65;;;;;;;;;;4955255;28;20023;-73
2022/09/15 03:37:23;;;;;;;7.90;2.22;;;;;;;;;;4964004;28;20027;-72
2022/09/15 03:39:49;;;;;;;12.10;2.55;;;;;;;;;;4965565;28;20503;-72
2022/09/15 03:42:15;;;;;;;12.27;2.78;;;;;;;;;;5018019;28;20022;-73
2022/09/15 03:44:41;;;;;;;12.52;2.55;;;;;;;;;;5045202;28;20093;-72
2022/09/15 03:47:07;;;;;;;11.05;2.50;;;;;;;;;;5045126;28;20026;-72
2022/09/15 03:49:33;;;;;;;13.20;2.72;;;;;;;;;;5052174;28;20481;-73
2022/09/15 03:51:59;;;;;;;9.95;2.40;;;;;;;;;;5050785;28;20165;-73
2022/09/15 03:54:25;;;;;;;11.70;2.80;;;;;;;;;;5031600;28;20033;-71
2022/09/15 03:56:52;;;;;;;12.65;2.60;;;;;;;;;;5032115;28;20060;-72
2022/09/15 03:59:18;;;;;;;12.02;2.22;;;;;;;;;;5030416;28;20112;-71
2022/09/15 04:01:45;;;;;;;12.88;2.28;;;;;;;;;;5030874;28;20437;-71
2022/09/15 04:04:11;;;;;;;12.02;2.78;;;;;;;;;;5031479;28;20025;-72
2022/09/15 04:06:37;;;;;;;14.85;2.58;;;;;;;;;;5030298;28;20378;-72
2022/09/15 04:09:03;;;;;;;14.60;2.55;;;;;;;;;;5031805;28;20025;-73
2022/09/15 04:11:30;;;;;;;10.60;2.35;;;;;;;;;;5031919;28;20049;-72
2022/09/15 04:13:56;;;;;;;15.10;2.50;;;;;;;;;;5037729;28;20033;-71
2022/09/15 04:16:23;;;;;;;18.77;3.45;;;;;;;;;;5035146;28;20065;-72
2022/09/15 04:18:50;;;;;;;9.45;2.35;;;;;;;;;;5036690;28;20375;-72
2022/09/15 04:21:17;;;;;;;12.55;2.40;;;;;;;;;;5035957;28;20032;-73
2022/09/15 04:23:44;;;;;;;7.93;1.88;;;;;;;;;;5035317;28;20392;-73
2022/09/15 04:26:16;;;;;;;11.07;2.45;;;;;;;;;;5033288;28;20107;-71
2022/09/15 04:28:42;;;;;;;11.88;2.53;;;;;;;;;;5035549;28;20021;-72
2022/09/15 04:31:09;;;;;;;12.43;2.17;;;;;;;;;;5035248;28;20454;-71
2022/09/15 04:33:35;;;;;;;11.75;2.55;;;;;;;;;;5034758;28;20029;-71
2022/09/15 04:36:02;;;;;;;13.45;2.33;;;;;;;;;;5035232;28;20493;-72
2022/09/15 04:38:28;;;;;;;15.77;3.78;;;;;;;;;;5035088;28;20539;-71
2022/09/15 04:40:55;;;;;;;12.68;2.88;;;;;;;;;;5034753;28;20026;-72
2022/09/15 04:43:21;;;;;;;12.48;2.40;;;;;;;;;;5034291;28;20022;-72
2022/09/15 04:45:47;;;;;;;13.43;2.67;;;;;;;;;;5035395;28;20030;-70
2022/09/15 04:48:13;;;;;;;13.70;2.40;;;;;;;;;;5036200;28;20517;-71
2022/09/15 04:50:39;;;;;;;15.25;3.10;;;;;;;;;;5035262;28;20030;-72
2022/09/15 04:53:05;;;;;;;19.48;2.90;;;;;;;;;;5034190;28;20155;-72
2022/09/15 04:55:32;;;;;;;13.63;2.35;;;;;;;;;;5034087;28;20117;-72
2022/09/15 04:57:58;;;;;;;15.23;2.13;;;;;;;;;;5034596;28;20026;-72
2022/09/15 05:00:25;;;;;;;14.57;2.75;;;;;;;;;;5035316;28;20029;-71
2022/09/15 05:02:51;;;;;;;5.55;1.52;;;;;;;;;;5036163;28;20021;-72
2022/09/15 05:05:18;;;;;;;17.25;3.05;;;;;;;;;;5035518;28;20022;-70
2022/09/15 05:07:44;;;;;;;17.35;2.55;;;;;;;;;;5034222;28;20502;-71
2022/09/15 05:10:10;;;;;;;11.85;2.83;;;;;;;;;;5034566;28;20128;-71
2022/09/15 05:12:36;;;;;;;17.27;2.30;;;;;;;;;;5034262;28;20030;-71
2022/09/15 05:15:02;;;;;;;12.45;2.45;;;;;;;;;;5034596;28;20060;-72
2022/09/15 05:17:31;;;;;;;9.13;2.00;;;;;;;;;;5040459;28;20032;-73
2022/09/15 05:19:57;;;;;;;10.43;1.80;;;;;;;;;;5037964;28;20018;-73
2022/09/15 05:22:23;;;;;;;15.23;2.67;;;;;;;;;;5035403;28;20021;-72
2022/09/15 05:24:49;;;;;;;18.83;2.80;;;;;;;;;;5033341;28;20061;-71
2022/09/15 05:27:15;;;;;;;11.32;2.08;;;;;;;;;;5033829;28;20051;-71
2022/09/15 05:29:41;;;;;;;21.23;2.95;;;;;;;;;;5035505;28;20108;-71
2022/09/15 05:32:06;;;;;;;12.82;2.60;;;;;;;;;;5033751;28;20041;-70
2022/09/15 05:34:32;;;;;;;14.63;2.33;;;;;;;;;;5034663;28;20029;-71
2022/09/15 05:36:58;;;;;;;13.77;2.85;;;;;;;;;;5033403;28;20030;-73
2022/09/15 05:39:24;;;;;;;13.45;2.20;;;;;;;;;;5035131;28;20123;-72
2022/09/15 05:41:50;;;;;;;18.67;2.97;;;;;;;;;;5038712;28;20057;-72
2022/09/15 05:44:16;;;;;;;19.38;2.33;;;;;;;;;;5033399;28;20048;-73
2022/09/15 05:46:43;;;;;;;20.75;2.80;;;;;;;;;;5031989;28;20052;-71
2022/09/15 05:49:10;;;;;;;15.20;2.25;;;;;;;;;;5033531;28;20037;-72
2022/09/15 05:51:36;;;;;;;18.65;2.58;;;;;;;;;;5032319;28;20026;-71
2022/09/15 05:54:02;;;;;;;10.48;2.65;;;;;;;;;;5032250;28;20041;-73
2022/09/15 05:56:28;;;;;;;16.02;2.63;;;;;;;;;;5032994;28;20104;-73
2022/09/15 05:58:54;;;;;;;10.93;2.17;;;;;;;;;;5033128;28;20025;-70
2022/09/15 06:01:22;;;;;;;14.32;2.33;;;;;;;;;;5033755;28;20030;-71
2022/09/15 06:03:48;;;;;;;14.82;2.42;;;;;;;;;;5039847;28;20108;-71
2022/09/15 06:06:14;;;;;;;13.90;2.13;;;;;;;;;;5032919;28;20542;-73
2022/09/15 06:08:42;;;;;;;10.52;2.03;;;;;;;;;;5033202;28;20394;-71
2022/09/15 06:11:12;;;;;;;11.10;2.42;;;;;;;;;;5033017;28;20026;-70
2022/09/15 06:13:39;;;;;;;13.35;1.77;;;;;;;;;;5035790;28;20120;-72
2022/09/15 06:16:06;;;;;;;12.73;2.30;;;;;;;;;;5036762;28;20037;-72
2022/09/15 06:18:33;;;;;;;16.33;2.40;;;;;;;;;;5035335;28;20025;-72
2022/09/15 06:21:10;;;;;;;16.17;2.80;;;;;;;;;;5033713;28;20482;-71
2022/09/15 06:23:36;;;;;;;13.43;2.22;;;;;;;;;;5033094;28;20021;-71
2022/09/15 06:26:06;;;;;;;15.73;4.00;;;;;;;;;;5032966;28;20092;-72
2022/09/15 06:28:32;;;;;;;19.83;4.32;;;;;;;;;;5031923;28;20486;-72
2022/09/15 06:30:59;;;;;;;17.15;2.45;;;;;;;;;;5033130;28;20025;-74
2022/09/15 06:33:26;;;;;;;14.60;2.50;;;;;;;;;;5033618;28;20024;-73
2022/09/15 06:35:51;;;;;;;11.05;1.88;;;;;;;;;;5032409;28;20501;-75
2022/09/15 06:38:17;;;;;;;15.15;2.15;;;;;;;;;;5032253;28;20029;-73
2022/09/15 06:40:44;;;;;;;16.70;2.30;;;;;;;;;;5037623;28;20104;-73
2022/09/15 06:43:10;;;;;;;10.77;3.28;;;;;;;;;;5033041;28;20107;-72
2022/09/15 06:45:36;;;;;;;14.55;2.25;;;;;;;;;;5032837;28;20124;-72
2022/09/15 06:48:02;;;;;;;17.48;3.50;;;;;;;;;;5033296;28;20025;-71
2022/09/15 06:50:29;;;;;;;8.30;1.77;;;;;;;;;;5035760;28;20021;-72
2022/09/15 06:52:55;;;;;;;13.98;1.98;;;;;;;;;;5036359;22;20058;-80
2022/09/15 06:55:21;;;;;;;15.70;2.50;;;;;;;;;;4964430;29;20023;-75
2022/09/15 06:57:49;;;;;;;11.25;1.98;;;;;;;;;;4959030;28;20149;-75
2022/09/15 07:00:15;;;;;;;16.30;6.60;;;;;;;;;;4961735;28;20499;-78
2022/09/15 07:02:41;;;;;;;16.30;4.80;;;;;;;;;;4959190;28;20400;-79
2022/09/15 07:05:07;;;;;;;17.20;3.72;;;;;;;;;;4957985;29;20035;-78
2022/09/15 07:07:33;;;;;;;12.20;1.92;;;;;;;;;;4959967;28;20100;-79
2022/09/15 07:10:00;;;;;;;13.77;2.47;;;;;;;;;;4954495;29;20027;-78
2022/09/15 07:12:26;;;;;;;19.88;2.97;;;;;;;;;;4954673;28;20464;-75
2022/09/15 07:14:51;;;;;;;15.40;2.70;;;;;;;;;;4957152;29;20062;-77
2022/09/15 07:17:17;;;;;;;13.98;2.40;;;;;;;;;;4951607;28;20032;-80
2022/09/15 07:19:44;;;;;;;23.25;2.85;;;;;;;;;;4954185;29;20031;-77
2022/09/15 07:22:10;;;;;;;17.05;2.28;;;;;;;;;;4953083;29;20028;-76
2022/09/15 07:24:36;;;;;;;12.00;2.13;;;;;;;;;;4953011;28;20031;-75
2022/09/15 07:27:02;;;;;;;16.20;2.67;;;;;;;;;;4951321;28;20551;-75
2022/09/15 07:29:28;;;;;;;15.75;2.60;;;;;;;;;;4951780;28;20028;-76
2022/09/15 07:31:54;;;;;;;11.88;2.80;;;;;;;;;;4952085;28;20053;-75
2022/09/15 07:34:20;;;;;;;15.23;3.47;;;;;;;;;;4952390;28;20031;-75
2022/09/15 07:36:46;;;;;;;13.68;2.13;;;;;;;;;;4951052;29;20028;-80
2022/09/15 07:39:12;;;;;;;20.10;2.33;;;;;;;;;;4972253;28;20033;-75
2022/09/15 07:41:38;;;;;;;16.58;2.33;;;;;;;;;;5051816;28;20021;-77
2022/09/15 07:44:06;;;;;;;16.80;2.35;;;;;;;;;;5052751;28;20079;-75
2022/09/15 07:46:32;;;;;;;18.27;2.00;;;;;;;;;;5052929;28;20404;-76
2022/09/15 07:49:01;;;;;;;12.85;2.08;;;;;;;;;;5055072;28;20020;-74
2022/09/15 07:51:27;;;;;;;15.93;2.30;;;;;;;;;;5056830;28;20100;-75
2022/09/15 07:53:53;;;;;;;24.90;2.80;;;;;;;;;;5056630;28;20076;-76
2022/09/15 07:56:19;;;;;;;15.77;2.40;;;;;;;;;;5054838;28;20029;-75
2022/09/15 07:58:46;;;;;;;11.98;2.33;;;;;;;;;;5056201;28;20035;-74
2022/09/15 08:01:13;;;;;;;14.45;2.03;;;;;;;;;;5061726;28;20074;-74
2022/09/15 08:03:42;;;;;;;14.55;1.77;;;;;;;;;;5066774;28;20032;-76
2022/09/15 08:06:12;;;;;;;16.98;2.50;;;;;;;;;;5067882;28;20119;-75
2022/09/15 08:08:39;;;;;;;19.13;3.20;;;;;;;;;;5068224;28;20025;-75
2022/09/15 08:11:05;;;;;;;21.13;5.30;;;;;;;;;;5068577;28;20033;-77
2022/09/15 08:13:31;;;;;;;16.88;2.80;;;;;;;;;;5070314;28;20109;-76
2022/09/15 08:16:04;;;;;;;16.00;2.42;;;;;;;;;;5071992;28;20025;-76
2022/09/15 08:18:30;;;;;;;14.68;2.47;;;;;;;;;;5070524;28;20029;-74
2022/09/15 08:20:56;;;;;;;16.42;2.20;;;;;;;;;;5069852;28;20527;-75
2022/09/15 08:23:22;;;;;;;13.20;1.95;;;;;;;;;;5071653;28;20573;-73
2022/09/15 08:25:50;;;;;;;14.63;2.13;;;;;;;;;;5064775;28;20029;-74
2022/09/15 08:28:16;;;;;;;18.17;2.33;;;;;;;;;;5056927;28;20021;-74
2022/09/15 08:30:42;;;;;;;12.38;1.95;;;;;;;;;;5056047;28;20114;-77
2022/09/15 08:33:08;;;;;;;11.73;1.95;;;;;;;;;;5056544;28;20080;-74
2022/09/15 08:35:35;;;;;;;11.77;1.88;;;;;;;;;;5056432;28;20036;-74
2022/09/15 08:38:01;;;;;;;16.27;1.67;;;;;;;;;;5054345;28;20025;-76
2022/09/15 08:40:34;;;;;;;10.27;1.95;;;;;;;;;;5055930;28;20087;-75
2022/09/15 08:43:04;;;;;;;7.78;1.92;;;;;;;;;;5053642;28;20445;-75
2022/09/15 08:45:36;;;;;;;11.98;1.70;;;;;;;;;;5055145;28;20215;-74
2022/09/15 08:48:03;;;;;;;10.52;1.80;;;;;;;;;;5055641;28;20052;-75
2022/09/15 08:50:39;;;;;;;10.38;1.70;;;;;;;;;;5058511;28;20057;-75
2022/09/15 08:53:14;;;;;;;11.95;1.70;;;;;;;;;;5061690;28;20416;-74
2022/09/15 08:55:46;;;;;;;17.85;2.15;;;;;;;;;;5067692;28;20047;-77
2022/09/15 08:58:14;;;;;;;13.10;2.15;;;;;;;;;;5076269;28;20047;-74
2022/09/15 09:00:40;;;;;;;8.07;1.60;;;;;;;;;;5075592;28;20029;-75
2022/09/15 09:03:15;;;;;;;7.45;1.50;;;;;;;;;;5078378;28;20041;-75
2022/09/15 09:05:44;;;;;;;14.35;2.35;;;;;;;;;;5065715;28;20033;-74
2022/09/15 09:08:20;;;;;;;12.13;1.95;;;;;;;;;;5055457;28;20108;-74
2022/09/15 09:10:52;;;;;;;15.77;2.60;;;;;;;;;;5056079;28;20037;-75
2022/09/15 09:13:33;;;;;;;11.15;1.95;;;;;;;;;;5056992;28;20102;-76
2022/09/15 09:16:03;;;;;;;11.38;2.00;;;;;;;;;;5056358;28;20375;-75
2022/09/15 09:18:29;;;;;;;11.68;1.70;;;;;;;;;;5058349;28;20013;-76
2022/09/15 09:21:00;;;;;;;12.45;3.35;;;;;;;;;;5056101;28;20036;-76
2022/09/15 09:23:28;;;;;;;17.17;1.95;;;;;;;;;;5054693;28;20394;-75
2022/09/15 09:25:55;;;;;;;14.65;2.60;;;;;;;;;;5054275;28;20435;-74
2022/09/15 09:28:29;;;;;;;15.90;2.97;;;;;;;;;;5053207;28;20021;-74
2022/09/15 09:31:05;;;;;;;16.50;2.40;;;;;;;;;;5054912;28;20121;-74
2022/09/15 09:33:35;;;;;;;11.95;2.40;;;;;;;;;;5053778;28;20036;-75
2022/09/15 09:36:02;;;;;;;9.25;1.90;;;;;;;;;;5055362;28;20033;-74
2022/09/15 09:38:34;;;;;;;16.17;2.20;;;;;;;;;;5055174;28;20036;-74
2022/09/15 09:41:00;;;;;;;12.38;2.78;;;;;;;;;;5053677;28;20083;-73
2022/09/15 09:43:27;;;;;;;11.98;1.90;;;;;;;;;;5053398;28;20024;-75
2022/09/15 09:45:54;;;;;;;12.63;1.90;;;;;;;;;;5054624;28;20432;-74
2022/09/15 09:48:24;;;;;;;11.98;1.85;;;;;;;;;;5054674;28;20024;-76
2022/09/15 09:50:50;;;;;;;10.60;1.88;;;;;;;;;;5053674;28;20020;-75
2022/09/15 09:53:16;;;;;;;9.38;2.97;;;;;;;;;;5072005;28;20041;-75
2022/09/15 09:55:44;;;;;;;10.35;1.73;;;;;;;;;;5076297;28;20039;-75
2022/09/15 09:58:12;;;;;;;14.05;2.28;;;;;;;;;;5077671;28;20031;-74
2022/09/15 10:00:39;;;;;;;12.57;2.35;;;;;;;;;;5060774;28;20431;-74
2022/09/15 10:03:24;;;;;;;8.88;1.85;;;;;;;;;;5053949;28;20394;-75
2022/09/15 10:06:04;;;;;;;9.65;1.70;;;;;;;;;;5054540;28;20111;-75
2022/09/15 10:08:30;;;;;;;13.98;2.20;;;;;;;;;;5059824;28;20385;-76
2022/09/15 10:11:00;;;;;;;13.95;2.15;;;;;;;;;;5059719;28;20068;-76
2022/09/15 10:13:26;;;;;;;14.63;2.67;;;;;;;;;;5067311;28;20020;-75
2022/09/15 10:15:54;;;;;;;12.43;2.47;;;;;;;;;;5076437;28;20020;-75
2022/09/15 10:18:28;;;;;;;10.57;1.80;;;;;;;;;;5075657;28;20005;-74
2022/09/15 10:20:54;;;;;;;9.90;1.70;;;;;;;;;;5070381;28;20032;-74
2022/09/15 10:23:20;;;;;;;11.40;2.00;;;;;;;;;;5073392;28;20041;-74
2022/09/15 10:25:46;;;;;;;20.30;3.47;;;;;;;;;;5061357;28;20113;-74
2022/09/15 10:28:13;;;;;;;23.38;4.30;;;;;;;;;;5054836;28;20029;-74
2022/09/15 10:30:40;;;;;;;12.23;1.77;;;;;;;;;;5053384;28;20017;-74
2022/09/15 10:33:20;;;;;;;8.05;1.92;;;;;;;;;;5052309;28;20040;-75
2022/09/15 10:35:46;;;;;;;11.98;2.08;;;;;;;;;;5053300;28;20027;-75
2022/09/15 10:38:14;;;;;;;9.10;1.58;;;;;;;;;;5053628;28;20029;-75
2022/09/15 10:40:47;;;;;;;9.82;1.63;;;;;;;;;;5053431;28;20103;-75
2022/09/15 10:43:13;;;;;;;6.90;1.30;;;;;;;;;;5053715;28;20059;-74
2022/09/15 10:45:43;;;;;;;8.13;1.35;;;;;;;;;;5054003;28;20100;-75
2022/09/15 10:48:12;;;;;;;5.80;1.00;;;;;;;;;;5053314;28;20063;-74
2022/09/15 10:50:48;;;;;;;6.70;1.40;;;;;;;;;;5053797;28;20048;-75
2022/09/15 10:53:33;;;;;;;9.68;1.35;;;;;;;;;;5053431;28;20118;-74
2022/09/15 10:56:18;;;;;;;6.10;1.38;;;;;;;;;;5053237;28;20112;-74
2022/09/15 10:59:02;;;;;;;6.68;1.70;;;;;;;;;;5053268;28;20102;-74
2022/09/15 11:01:28;;;;;;;9.27;1.38;;;;;;;;;;5054196;28;20036;-74
2022/09/15 11:04:13;;;;;;;6.72;1.55;;;;;;;;;;5054408;28;20040;-74
2022/09/15 11:06:48;;;;;;;9.70;1.20;;;;;;;;;;5053082;28;20052;-74
2022/09/15 11:09:18;;;;;;;11.40;2.05;;;;;;;;;;5053706;28;20078;-76
2022/09/15 11:11:59;;;;;;;5.35;1.13;;;;;;;;;;5054896;28;20025;-77
2022/09/15 11:14:32;;;;;;;7.63;1.60;;;;;;;;;;5056680;28;20380;-78
2022/09/15 11:17:10;;;;;;;13.73;1.83;;;;;;;;;;5055971;28;20070;-74
2022/09/15 11:20:03;;;;;;;9.52;1.73;;;;;;;;;;5054672;28;20029;-74
2022/09/15 11:22:35;;;;;;;9.30;2.30;;;;;;;;;;5053155;28;20021;-74
2022/09/15 11:25:00;;;;;;;7.03;1.60;;;;;;;;;;5071453;28;20036;-74
2022/09/15 11:27:33;;;;;;;10.43;1.83;;;;;;;;;;5071024;28;20013;-74
2022/09/15 11:30:00;;;;;;;11.95;2.50;;;;;;;;;;5072602;28;20029;-74
2022/09/15 11:32:36;;;;;;;5.95;1.60;;;;;;;;;;5073240;28;20082;-73
2022/09/15 11:35:20;;;;;;;13.68;1.30;;;;;;;;;;5072304;28;20075;-73
2022/09/15 11:37:48;;;;;;;6.28;2.13;;;;;;;;;;5055649;28;20402;-74
2022/09/15 11:40:23;;;;;;;6.13;1.77;;;;;;;;;;5052648;28;20071;-74
2022/09/15 11:42:52;;;;;;;6.00;1.33;;;;;;;;;;5053554;28;20382;-74
2022/09/15 11:45:24;;;;;;;9.70;1.25;;;;;;;;;;5052590;28;20381;-74
2022/09/15 11:47:53;;;;;;;5.80;1.35;;;;;;;;;;5052992;28;20021;-73
2022/09/15 11:50:32;;;;;;;7.18;1.70;;;;;;;;;;5062398;28;20025;-73
2022/09/15 11:53:03;;;;;;;7.60;1.40;;;;;;;;;;5052385;28;20029;-74
2022/09/15 11:55:41;;;;;;;7.47;1.75;;;;;;;;;;5050992;28;20450;-74
2022/09/15 11:58:17;;;;;;;6.65;1.63;;;;;;;;;;5053245;28;20036;-74
2022/09/15 12:01:00;;;;;;;5.68;1.30;;;;;;;;;;5053909;28;20100;-74
2022/09/15 12:03:44;;;;;;;11.88;1.77;;;;;;;;;;5052859;28;20037;-74
2022/09/15 12:06:16;;;;;;;8.90;1.92;;;;;;;;;;5052258;28;20029;-73
2022/09/15 12:08:46;;;;;;;9.02;1.60;;;;;;;;;;5052423;28;20106;-74
2022/09/15 12:11:16;;;;;;;6.80;1.83;;;;;;;;;;5052210;28;20394;-73
2022/09/15 12:13:42;;;;;;;9.48;1.98;;;;;;;;;;5052588;28;20036;-74
2022/09/15 12:16:08;;;;;;;5.95;1.48;;;;;;;;;;5052083;28;20025;-73
2022/09/15 12:18:48;;;;;;;7.05;1.83;;;;;;;;;;5051728;28;20029;-74
2022/09/15 12:21:14;;;;;;;13.20;2.63;;;;;;;;;;5053129;28;20017;-73
2022/09/15 12:23:42;;;;;;;6.07;2.03;;;;;;;;;;5051125;28;20052;-74
2022/09/15 12:26:19;;;;;;;10.85;2.03;;;;;;;;;;5053260;28;20036;-76
2022/09/15 12:28:54;;;;;;;13.82;2.20;;;;;;;;;;5053034;28;20013;-77
2022/09/15 12:31:24;;;;;;;8.27;3.58;;;;;;;;;;5051837;28;20021;-76
2022/09/15 12:33:54;;;;;;;6.47;2.35;;;;;;;;;;5054233;28;20021;-76
2022/09/15 12:36:29;;;;;;;10.98;2.10;;;;;;;;;;5070598;28;20029;-74
2022/09/15 12:38:55;;;;;;;6.28;1.80;;;;;;;;;;5078760;28;20083;-74
2022/09/15 12:41:21;;;;;;;6.53;1.23;;;;;;;;;;5078562;28;20044;-75
2022/09/15 12:44:13;;;;;;;6.03;1.50;;;;;;;;;;5040094;28;20089;-74
2022/09/15 12:46:40;;;;;;;7.22;1.15;;;;;;;;;;4970801;29;20111;-75
2022/09/15 12:49:13;;;;;;;6.85;1.40;;;;;;;;;;4956360;28;20476;-75
2022/09/15 12:51:39;;;;;;;10.33;2.00;;;;;;;;;;4954187;28;20065;-74
2022/09/15 12:54:07;;;;;;;3.88;1.40;;;;;;;;;;4953605;28;20279;-75
2022/09/15 12:56:34;;;;;;;8.18;1.63;;;;;;;;;;4954216;28;20019;-75
2022/09/15 12:59:04;;;;;;;10.80;1.52;;;;;;;;;;4953463;28;20743;-75
2022/09/15 13:01:31;;;;;;;5.65;1.58;;;;;;;;;;4953398;28;20442;-75
2022/09/15 13:03:57;;;;;;;10.32;1.48;;;;;;;;;;4953801;28;20059;-75
2022/09/15 13:06:26;;;;;;;11.48;1.95;;;;;;;;;;4954228;28;20015;-74
2022/09/15 13:09:02;;;;;;;14.30;1.77;;;;;;;;;;4955487;28;20476;-74
2022/09/15 13:11:37;;;;;;;8.07;1.98;;;;;;;;;;4957454;28;20027;-74
2022/09/15 13:14:05;;;;;;;4.90;1.33;;;;;;;;;;4959158;28;20027;-75
2022/09/15 13:16:35;;;;;;;5.63;1.40;;;;;;;;;;4959584;28;20030;-75
2022/09/15 13:19:20;;;;;;;4.13;1.15;;;;;;;;;;4955221;28;20043;-75
2022/09/15 13:21:53;;;;;;;7.22;1.33;;;;;;;;;;4953516;28;20054;-74
2022/09/15 13:24:38;;;;;;;6.83;1.27;;;;;;;;;;4952724;28;20032;-74
2022/09/15 13:27:05;;;;;;;6.07;1.27;;;;;;;;;;4952814;28;20027;-75
2022/09/15 13:29:32;;;;;;;5.40;1.60;;;;;;;;;;4955003;29;20106;-74
2022/09/15 13:32:08;;;;;;;4.88;1.40;;;;;;;;;;4960069;28;20056;-75
2022/09/15 13:34:50;;;;;;;9.85;1.90;;;;;;;;;;4962280;28;20027;-73
2022/09/15 13:37:28;;;;;;;8.98;1.92;;;;;;;;;;4956577;28;20031;-75
2022/09/15 13:40:05;;;;;;;7.50;1.92;;;;;;;;;;4955399;28;20051;-74
2022/09/15 13:42:40;;;;;;;8.75;1.90;;;;;;;;;;4953418;28;20084;-74
2022/09/15 13:45:12;;;;;;;9.57;1.80;;;;;;;;;;4952682;28;20053;-75
2022/09/15 13:47:57;;;;;;;10.75;1.98;;;;;;;;;;4953699;28;20019;-74
2022/09/15 13:50:23;;;;;;;;;;;;;;;;;;4952903;29;20110;-73
2022/09/15 13:52:48;;;;;;;7.72;1.55;;;;;;;;;;4953141;28;19941;-72
2022/09/15 13:55:18;;;;;;;11.27;2.63;;;;;;;;;;4962296;29;20016;-76
2022/09/15 13:57:46;;;;;;;8.90;1.92;;;;;;;;;;4974424;28;20166;-75
2022/09/15 14:00:14;;;;;;;9.85;1.58;;;;;;;;;;4975197;28;20022;-75
2022/09/15 14:03:06;;;;;;;8.50;2.30;;;;;;;;;;4974434;28;20024;-73
2022/09/15 14:05:33;;;;;;;5.35;1.40;;;;;;;;;;4967886;28;20074;-72
2022/09/15 14:08:01;;;;;;;6.47;1.90;;;;;;;;;;4963334;28;20035;-71
2022/09/15 14:10:29;;;;;;;8.57;4.07;;;;;;;;;;4952735;28;20039;-74
2022/09/15 14:12:58;;;;;;;9.38;2.10;;;;;;;;;;4952888;28;20463;-72
2022/09/15 14:15:24;;;;;;;10.43;2.35;;;;;;;;;;4957682;28;20035;-72
2022/09/15 14:17:51;;;;;;;9.48;1.35;;;;;;;;;;4953232;28;20115;-73
2022/09/15 14:20:30;;;;;;;10.32;1.65;;;;;;;;;;4952301;28;20059;-73
2022/09/15 14:22:57;;;;;;;5.97;1.73;;;;;;;;;;4952896;28;20391;-73
2022/09/15 14:25:23;;;;;;;6.35;1.40;;;;;;;;;;4953986;28;20058;-73
2022/09/15 14:27:51;;;;;;;7.57;1.85;;;;;;;;;;4952912;29;20392;-74
2022/09/15 14:30:28;;;;;;;9.95;1.83;;;;;;;;;;4952728;28;20051;-75
2022/09/15 14:32:57;;;;;;;8.02;1.58;;;;;;;;;;4952504;28;20053;-74
2022/09/15 14:35:25;;;;;;;10.40;1.98;;;;;;;;;;4952654;28;20024;-75
2022/09/15 14:37:58;;;;;;;6.05;1.75;;;;;;;;;;4951451;29;20095;-75
2022/09/15 14:40:26;;;;;;;6.32;1.75;;;;;;;;;;4953808;28;20037;-75
2022/09/15 14:42:52;;;;;;;6.55;1.70;;;;;;;;;;4953080;28;20024;-74
2022/09/15 14:45:20;;;;;;;9.05;2.40;;;;;;;;;;4951434;29;20138;-75
2022/09/15 14:47:46;;;;;;;8.57;2.17;;;;;;;;;;4952374;28;20023;-74